sensor_id;sensor_type;location;lat;lon;timestamp;temperature;humidity
46482;DHT22;32193;51.446;6.792;2022-07-30T00:02:03;18.90;99.90
46482;DHT22;32193;51.446;6.792;2022-07-30T00:04:29;19.00;99.90
46482;DHT22;32193;51.446;6.792;2022-07-30T00:09:22;19.00;99.90
46482;DHT22;32193;51.446;6.792;2022-07-30T00:11:48;19.10;99.90
46482;DHT22;32193;51.446;6.792;2022-07-30T00:16:40;18.40;99.90
46482;DHT22;32193;51.446;6.792;2022-07-30T00:21:32;18.20;99.90
46482;DHT22;32193;51.446;6.792;2022-07-30T00:23:58;18.90;99.90
46482;DHT22;32193;51.446;6.792;2022-07-30T00:26:23;18.80;99.90
46482;DHT22;32193;51.446;6.792;2022-07-30T00:28:49;18.30;99.90
46482;DHT22;32193;51.446;6.792;2022-07-30T00:33:40;18.10;99.90
46482;DHT22;32193;51.446;6.792;2022-07-30T00:38:32;18.40;99.90
46482;DHT22;32193;51.446;6.792;2022-07-30T00:45:49;18.60;99.90
46482;DHT22;32193;51.446;6.792;2022-07-30T00:48:16;17.40;99.90
46482;DHT22;32193;51.446;6.792;2022-07-30T00:50:41;17.90;99.90
46482;DHT22;32193;51.446;6.792;2022-07-30T00:53:07;18.50;99.90
46482;DHT22;32193;51.446;6.792;2022-07-30T00:55:33;18.40;99.90
46482;DHT22;32193;51.446;6.792;2022-07-30T01:00:26;18.00;99.90
46482;DHT22;32193;51.446;6.792;2022-07-30T01:02:52;18.20;99.90
46482;DHT22;32193;51.446;6.792;2022-07-30T01:07:43;18.10;99.90
46482;DHT22;32193;51.446;6.792;2022-07-30T01:10:11;17.90;99.90
46482;DHT22;32193;51.446;6.792;2022-07-30T01:12:38;18.20;99.90
46482;DHT22;32193;51.446;6.792;2022-07-30T01:15:06;17.60;99.90
46482;DHT22;32193;51.446;6.792;2022-07-30T01:17:33;18.30;99.90
46482;DHT22;32193;51.446;6.792;2022-07-30T01:20:08;17.70;99.90
46482;DHT22;32193;51.446;6.792;2022-07-30T01:28:05;18.00;99.90
46482;DHT22;32193;51.446;6.792;2022-07-30T01:30:35;18.40;99.90
46482;DHT22;32193;51.446;6.792;2022-07-30T01:33:03;18.10;99.90
46482;DHT22;32193;51.446;6.792;2022-07-30T01:35:32;18.10;99.90
46482;DHT22;32193;51.446;6.792;2022-07-30T01:37:58;18.40;99.90
46482;DHT22;32193;51.446;6.792;2022-07-30T01:40:27;18.20;99.90
46482;DHT22;32193;51.446;6.792;2022-07-30T01:42:54;18.10;99.90
46482;DHT22;32193;51.446;6.792;2022-07-30T01:45:23;18.20;99.90
46482;DHT22;32193;51.446;6.792;2022-07-30T01:47:52;17.90;99.90
46482;DHT22;32193;51.446;6.792;2022-07-30T01:50:19;18.10;99.90
46482;DHT22;32193;51.446;6.792;2022-07-30T01:52:48;17.70;99.90
46482;DHT22;32193;51.446;6.792;2022-07-30T01:55:19;17.60;99.90
46482;DHT22;32193;51.446;6.792;2022-07-30T01:57:47;18.00;99.90
46482;DHT22;32193;51.446;6.792;2022-07-30T02:00:13;17.80;99.90
46482;DHT22;32193;51.446;6.792;2022-07-30T02:02:40;17.80;99.90
46482;DHT22;32193;51.446;6.792;2022-07-30T02:05:07;17.70;99.90
46482;DHT22;32193;51.446;6.792;2022-07-30T02:07:42;18.20;99.90
46482;DHT22;32193;51.446;6.792;2022-07-30T02:10:13;17.30;99.90
46482;DHT22;32193;51.446;6.792;2022-07-30T02:12:48;18.00;99.90
46482;DHT22;32193;51.446;6.792;2022-07-30T02:15:35;18.10;99.90
46482;DHT22;32193;51.446;6.792;2022-07-30T02:18:09;18.00;99.90
46482;DHT22;32193;51.446;6.792;2022-07-30T02:20:36;17.30;99.90
46482;DHT22;32193;51.446;6.792;2022-07-30T02:23:06;17.70;99.90
46482;DHT22;32193;51.446;6.792;2022-07-30T02:25:36;17.00;99.90
46482;DHT22;32193;51.446;6.792;2022-07-30T02:28:07;17.70;99.90
46482;DHT22;32193;51.446;6.792;2022-07-30T02:30:35;17.30;99.90
46482;DHT22;32193;51.446;6.792;2022-07-30T02:33:04;17.40;99.90
46482;DHT22;32193;51.446;6.792;2022-07-30T02:35:33;17.60;99.90
46482;DHT22;32193;51.446;6.792;2022-07-30T02:38:00;17.30;99.90
46482;DHT22;32193;51.446;6.792;2022-07-30T02:40:27;17.30;99.90
46482;DHT22;32193;51.446;6.792;2022-07-30T02:42:53;17.90;99.90
46482;DHT22;32193;51.446;6.792;2022-07-30T02:45:21;17.40;99.90
46482;DHT22;32193;51.446;6.792;2022-07-30T02:47:56;17.30;99.90
46482;DHT22;32193;51.446;6.792;2022-07-30T02:50:23;17.70;99.90
46482;DHT22;32193;51.446;6.792;2022-07-30T02:52:51;17.20;99.90
46482;DHT22;32193;51.446;6.792;2022-07-30T02:55:18;17.60;99.90
46482;DHT22;32193;51.446;6.792;2022-07-30T02:57:45;17.40;99.90
46482;DHT22;32193;51.446;6.792;2022-07-30T03:00:11;17.30;99.90
46482;DHT22;32193;51.446;6.792;2022-07-30T03:02:38;17.40;99.90
46482;DHT22;32193;51.446;6.792;2022-07-30T03:05:05;17.00;99.90
46482;DHT22;32193;51.446;6.792;2022-07-30T03:07:33;17.20;99.90
46482;DHT22;32193;51.446;6.792;2022-07-30T03:10:00;17.40;99.90
46482;DHT22;32193;51.446;6.792;2022-07-30T03:12:29;17.20;99.90
46482;DHT22;32193;51.446;6.792;2022-07-30T03:14:56;17.10;99.90
46482;DHT22;32193;51.446;6.792;2022-07-30T03:17:24;17.00;99.90
46482;DHT22;32193;51.446;6.792;2022-07-30T03:19:52;17.00;99.90
46482;DHT22;32193;51.446;6.792;2022-07-30T03:22:20;17.20;99.90
46482;DHT22;32193;51.446;6.792;2022-07-30T03:24:47;16.60;99.90
46482;DHT22;32193;51.446;6.792;2022-07-30T03:27:14;17.10;99.90
46482;DHT22;32193;51.446;6.792;2022-07-30T03:29:41;16.80;99.90
46482;DHT22;32193;51.446;6.792;2022-07-30T03:32:09;17.10;99.90
46482;DHT22;32193;51.446;6.792;2022-07-30T03:34:35;17.00;99.90
46482;DHT22;32193;51.446;6.792;2022-07-30T03:37:05;17.00;99.90
46482;DHT22;32193;51.446;6.792;2022-07-30T03:39:34;16.70;99.90
46482;DHT22;32193;51.446;6.792;2022-07-30T03:42:02;16.80;99.90
46482;DHT22;32193;51.446;6.792;2022-07-30T03:44:29;17.30;99.90
46482;DHT22;32193;51.446;6.792;2022-07-30T03:46:56;16.90;99.90
46482;DHT22;32193;51.446;6.792;2022-07-30T03:49:24;16.90;99.90
46482;DHT22;32193;51.446;6.792;2022-07-30T03:51:51;17.00;99.90
46482;DHT22;32193;51.446;6.792;2022-07-30T03:54:18;16.60;99.90
46482;DHT22;32193;51.446;6.792;2022-07-30T03:56:44;16.90;99.90
46482;DHT22;32193;51.446;6.792;2022-07-30T03:59:12;17.10;99.90
46482;DHT22;32193;51.446;6.792;2022-07-30T04:01:38;16.80;99.90
46482;DHT22;32193;51.446;6.792;2022-07-30T04:04:07;17.40;99.90
46482;DHT22;32193;51.446;6.792;2022-07-30T04:06:37;17.40;99.90
46482;DHT22;32193;51.446;6.792;2022-07-30T04:09:11;16.90;99.90
46482;DHT22;32193;51.446;6.792;2022-07-30T04:11:37;17.30;99.90
46482;DHT22;32193;51.446;6.792;2022-07-30T04:14:03;17.10;99.90
46482;DHT22;32193;51.446;6.792;2022-07-30T04:19:28;17.00;99.90
46482;DHT22;32193;51.446;6.792;2022-07-30T04:21:56;17.40;99.90
46482;DHT22;32193;51.446;6.792;2022-07-30T04:24:22;16.30;99.90
46482;DHT22;32193;51.446;6.792;2022-07-30T04:26:50;16.70;99.90
46482;DHT22;32193;51.446;6.792;2022-07-30T04:29:17;17.20;99.90
46482;DHT22;32193;51.446;6.792;2022-07-30T04:31:42;16.60;99.90
46482;DHT22;32193;51.446;6.792;2022-07-30T04:34:12;17.00;99.90
46482;DHT22;32193;51.446;6.792;2022-07-30T04:36:38;17.40;99.90
46482;DHT22;32193;51.446;6.792;2022-07-30T04:41:30;17.70;99.90
46482;DHT22;32193;51.446;6.792;2022-07-30T04:48:48;17.60;99.90
46482;DHT22;32193;51.446;6.792;2022-07-30T04:51:27;17.70;99.90
46482;DHT22;32193;51.446;6.792;2022-07-30T04:53:54;18.10;99.90
46482;DHT22;32193;51.446;6.792;2022-07-30T04:56:22;17.90;99.90
46482;DHT22;32193;51.446;6.792;2022-07-30T04:58:49;18.10;99.90
46482;DHT22;32193;51.446;6.792;2022-07-30T05:01:22;18.20;99.90
46482;DHT22;32193;51.446;6.792;2022-07-30T05:03:50;18.40;99.90
46482;DHT22;32193;51.446;6.792;2022-07-30T05:06:17;18.30;99.90
46482;DHT22;32193;51.446;6.792;2022-07-30T05:11:11;18.20;99.90
46482;DHT22;32193;51.446;6.792;2022-07-30T05:13:40;18.70;99.90
46482;DHT22;32193;51.446;6.792;2022-07-30T05:20:58;17.80;99.90
46482;DHT22;32193;51.446;6.792;2022-07-30T05:23:24;18.10;99.90
46482;DHT22;32193;51.446;6.792;2022-07-30T05:25:50;18.40;99.90
46482;DHT22;32193;51.446;6.792;2022-07-30T05:28:15;18.20;99.90
46482;DHT22;32193;51.446;6.792;2022-07-30T05:30:41;17.50;99.90
46482;DHT22;32193;51.446;6.792;2022-07-30T05:33:07;17.40;99.90
46482;DHT22;32193;51.446;6.792;2022-07-30T05:35:32;17.30;99.90
46482;DHT22;32193;51.446;6.792;2022-07-30T05:37:59;18.10;99.90
46482;DHT22;32193;51.446;6.792;2022-07-30T05:45:16;17.80;99.90
46482;DHT22;32193;51.446;6.792;2022-07-30T05:47:42;18.30;99.90
46482;DHT22;32193;51.446;6.792;2022-07-30T05:50:08;18.10;99.90
46482;DHT22;32193;51.446;6.792;2022-07-30T05:52:33;17.20;99.90
46482;DHT22;32193;51.446;6.792;2022-07-30T05:54:59;17.60;99.90
46482;DHT22;32193;51.446;6.792;2022-07-30T06:02:17;17.90;99.90
46482;DHT22;32193;51.446;6.792;2022-07-30T06:09:35;17.30;99.90
46482;DHT22;32193;51.446;6.792;2022-07-30T06:12:00;17.70;99.90
46482;DHT22;32193;51.446;6.792;2022-07-30T06:16:52;17.50;99.90
46482;DHT22;32193;51.446;6.792;2022-07-30T06:19:17;17.40;99.90
46482;DHT22;32193;51.446;6.792;2022-07-30T06:21:43;17.80;99.90
46482;DHT22;32193;51.446;6.792;2022-07-30T06:24:08;17.20;99.90
46482;DHT22;32193;51.446;6.792;2022-07-30T06:26:34;17.80;99.90
46482;DHT22;32193;51.446;6.792;2022-07-30T06:33:52;17.40;99.90
46482;DHT22;32193;51.446;6.792;2022-07-30T06:36:17;17.90;99.90
46482;DHT22;32193;51.446;6.792;2022-07-30T06:38:43;17.70;99.90
46482;DHT22;32193;51.446;6.792;2022-07-30T06:43:35;17.50;99.90
46482;DHT22;32193;51.446;6.792;2022-07-30T06:46:00;18.30;99.90
46482;DHT22;32193;51.446;6.792;2022-07-30T06:53:18;18.60;99.90
46482;DHT22;32193;51.446;6.792;2022-07-30T06:55:43;18.30;99.90
46482;DHT22;32193;51.446;6.792;2022-07-30T06:58:09;17.80;99.90
46482;DHT22;32193;51.446;6.792;2022-07-30T07:00:35;19.00;99.90
46482;DHT22;32193;51.446;6.792;2022-07-30T07:05:26;19.10;99.90
46482;DHT22;32193;51.446;6.792;2022-07-30T07:10:19;19.70;99.90
46482;DHT22;32193;51.446;6.792;2022-07-30T07:12:45;19.60;99.90
46482;DHT22;32193;51.446;6.792;2022-07-30T07:20:05;20.00;99.90
46482;DHT22;32193;51.446;6.792;2022-07-30T07:22:30;19.70;99.90
46482;DHT22;32193;51.446;6.792;2022-07-30T07:27:22;20.10;99.90
46482;DHT22;32193;51.446;6.792;2022-07-30T07:29:48;20.50;99.90
46482;DHT22;32193;51.446;6.792;2022-07-30T07:32:13;21.30;99.90
46482;DHT22;32193;51.446;6.792;2022-07-30T07:34:39;21.40;99.90
46482;DHT22;32193;51.446;6.792;2022-07-30T07:37:05;21.30;99.90
46482;DHT22;32193;51.446;6.792;2022-07-30T07:39:30;21.50;99.90
46482;DHT22;32193;51.446;6.792;2022-07-30T07:51:40;22.00;99.90
46482;DHT22;32193;51.446;6.792;2022-07-30T07:54:05;22.80;99.90
46482;DHT22;32193;51.446;6.792;2022-07-30T07:56:31;22.60;99.90
46482;DHT22;32193;51.446;6.792;2022-07-30T07:58:57;23.20;99.90
46482;DHT22;32193;51.446;6.792;2022-07-30T08:01:23;23.60;99.90
46482;DHT22;32193;51.446;6.792;2022-07-30T08:03:48;23.20;99.90
46482;DHT22;32193;51.446;6.792;2022-07-30T08:08:40;23.30;99.90
46482;DHT22;32193;51.446;6.792;2022-07-30T08:13:32;24.40;99.90
46482;DHT22;32193;51.446;6.792;2022-07-30T08:15:59;24.60;99.90
46482;DHT22;32193;51.446;6.792;2022-07-30T08:18:25;24.70;99.90
46482;DHT22;32193;51.446;6.792;2022-07-30T08:20:52;25.40;99.90
46482;DHT22;32193;51.446;6.792;2022-07-30T08:28:12;26.00;99.90
46482;DHT22;32193;51.446;6.792;2022-07-30T08:30:38;26.00;99.90
46482;DHT22;32193;51.446;6.792;2022-07-30T08:40:25;25.30;99.90
46482;DHT22;32193;51.446;6.792;2022-07-30T08:42:52;25.50;99.90
46482;DHT22;32193;51.446;6.792;2022-07-30T08:45:18;24.90;99.90
46482;DHT22;32193;51.446;6.792;2022-07-30T08:47:46;25.40;99.90
46482;DHT22;32193;51.446;6.792;2022-07-30T08:50:12;24.60;99.90
46482;DHT22;32193;51.446;6.792;2022-07-30T08:52:39;24.60;99.90
46482;DHT22;32193;51.446;6.792;2022-07-30T08:55:06;25.30;99.90
46482;DHT22;32193;51.446;6.792;2022-07-30T08:57:35;24.80;99.90
46482;DHT22;32193;51.446;6.792;2022-07-30T09:00:03;25.10;99.90
46482;DHT22;32193;51.446;6.792;2022-07-30T09:02:31;23.80;99.90
46482;DHT22;32193;51.446;6.792;2022-07-30T09:04:57;24.50;99.90
46482;DHT22;32193;51.446;6.792;2022-07-30T09:15:04;24.10;99.90
46482;DHT22;32193;51.446;6.792;2022-07-30T09:20:14;24.10;99.90
46482;DHT22;32193;51.446;6.792;2022-07-30T09:22:45;24.70;99.90
46482;DHT22;32193;51.446;6.792;2022-07-30T09:27:48;24.40;99.90
46482;DHT22;32193;51.446;6.792;2022-07-30T09:30:15;23.80;99.90
46482;DHT22;32193;51.446;6.792;2022-07-30T09:32:52;23.80;99.90
46482;DHT22;32193;51.446;6.792;2022-07-30T09:35:19;23.40;99.90
46482;DHT22;32193;51.446;6.792;2022-07-30T09:37:45;24.30;99.90
46482;DHT22;32193;51.446;6.792;2022-07-30T09:40:16;24.80;99.90
46482;DHT22;32193;51.446;6.792;2022-07-30T09:42:42;25.00;99.90
46482;DHT22;32193;51.446;6.792;2022-07-30T09:45:13;24.80;99.90
46482;DHT22;32193;51.446;6.792;2022-07-30T09:47:43;24.90;99.90
46482;DHT22;32193;51.446;6.792;2022-07-30T09:50:10;24.50;99.90
46482;DHT22;32193;51.446;6.792;2022-07-30T09:52:38;25.00;99.90
46482;DHT22;32193;51.446;6.792;2022-07-30T09:55:04;25.90;99.90
46482;DHT22;32193;51.446;6.792;2022-07-30T09:59:57;25.60;99.90
46482;DHT22;32193;51.446;6.792;2022-07-30T10:02:39;25.30;99.90
46482;DHT22;32193;51.446;6.792;2022-07-30T10:05:13;26.10;99.90
46482;DHT22;32193;51.446;6.792;2022-07-30T10:07:53;26.00;99.90
46482;DHT22;32193;51.446;6.792;2022-07-30T10:10:22;25.60;99.90
46482;DHT22;32193;51.446;6.792;2022-07-30T10:12:56;25.40;99.90
46482;DHT22;32193;51.446;6.792;2022-07-30T10:15:26;25.40;99.90
46482;DHT22;32193;51.446;6.792;2022-07-30T10:20:18;25.00;99.90
46482;DHT22;32193;51.446;6.792;2022-07-30T10:22:44;25.60;99.90
46482;DHT22;32193;51.446;6.792;2022-07-30T10:25:11;25.80;99.90
46482;DHT22;32193;51.446;6.792;2022-07-30T10:27:37;25.40;99.90
46482;DHT22;32193;51.446;6.792;2022-07-30T10:30:04;25.10;99.50
46482;DHT22;32193;51.446;6.792;2022-07-30T10:32:31;25.10;99.90
46482;DHT22;32193;51.446;6.792;2022-07-30T10:34:57;25.90;99.90
46482;DHT22;32193;51.446;6.792;2022-07-30T10:37:25;25.50;98.40
46482;DHT22;32193;51.446;6.792;2022-07-30T10:40:04;25.40;98.20
46482;DHT22;32193;51.446;6.792;2022-07-30T10:45:44;25.80;98.30
46482;DHT22;32193;51.446;6.792;2022-07-30T10:48:14;26.00;99.60
46482;DHT22;32193;51.446;6.792;2022-07-30T10:50:51;26.00;98.10
46482;DHT22;32193;51.446;6.792;2022-07-30T10:59:10;25.90;96.60
46482;DHT22;32193;51.446;6.792;2022-07-30T11:09:38;25.50;97.10
46482;DHT22;32193;51.446;6.792;2022-07-30T11:12:05;25.80;95.40
46482;DHT22;32193;51.446;6.792;2022-07-30T11:17:14;26.30;95.60
46482;DHT22;32193;51.446;6.792;2022-07-30T11:22:33;25.90;93.80
46482;DHT22;32193;51.446;6.792;2022-07-30T11:25:07;25.90;95.70
46482;DHT22;32193;51.446;6.792;2022-07-30T11:27:42;25.70;94.50
46482;DHT22;32193;51.446;6.792;2022-07-30T11:32:48;26.30;94.60
46482;DHT22;32193;51.446;6.792;2022-07-30T11:35:32;26.20;94.50
46482;DHT22;32193;51.446;6.792;2022-07-30T11:43:26;26.40;94.40
46482;DHT22;32193;51.446;6.792;2022-07-30T11:46:13;26.30;94.20
46482;DHT22;32193;51.446;6.792;2022-07-30T11:48:40;26.70;95.00
46482;DHT22;32193;51.446;6.792;2022-07-30T11:53:33;26.30;93.80
46482;DHT22;32193;51.446;6.792;2022-07-30T11:56:01;25.80;93.30
46482;DHT22;32193;51.446;6.792;2022-07-30T11:58:33;26.50;93.50
46482;DHT22;32193;51.446;6.792;2022-07-30T12:01:03;26.40;93.30
46482;DHT22;32193;51.446;6.792;2022-07-30T12:03:30;26.70;96.70
46482;DHT22;32193;51.446;6.792;2022-07-30T12:06:03;26.90;96.10
46482;DHT22;32193;51.446;6.792;2022-07-30T12:08:38;27.20;95.40
46482;DHT22;32193;51.446;6.792;2022-07-30T12:11:04;27.10;96.70
46482;DHT22;32193;51.446;6.792;2022-07-30T12:18:27;27.00;94.50
46482;DHT22;32193;51.446;6.792;2022-07-30T12:20:54;26.20;94.20
46482;DHT22;32193;51.446;6.792;2022-07-30T12:23:21;27.00;93.00
46482;DHT22;32193;51.446;6.792;2022-07-30T12:28:23;26.80;93.30
46482;DHT22;32193;51.446;6.792;2022-07-30T12:30:51;26.40;92.60
46482;DHT22;32193;51.446;6.792;2022-07-30T12:35:48;27.10;92.80
46482;DHT22;32193;51.446;6.792;2022-07-30T12:38:15;26.60;92.50
46482;DHT22;32193;51.446;6.792;2022-07-30T12:40:51;26.80;92.60
46482;DHT22;32193;51.446;6.792;2022-07-30T12:43:17;26.60;92.70
46482;DHT22;32193;51.446;6.792;2022-07-30T12:45:43;27.20;93.80
46482;DHT22;32193;51.446;6.792;2022-07-30T12:48:11;26.90;92.10
46482;DHT22;32193;51.446;6.792;2022-07-30T12:50:37;27.20;93.80
46482;DHT22;32193;51.446;6.792;2022-07-30T12:55:30;27.70;92.90
46482;DHT22;32193;51.446;6.792;2022-07-30T12:58:06;27.40;92.80
46482;DHT22;32193;51.446;6.792;2022-07-30T13:00:48;27.40;91.50
46482;DHT22;32193;51.446;6.792;2022-07-30T13:03:27;27.40;92.40
46482;DHT22;32193;51.446;6.792;2022-07-30T13:05:55;27.20;92.90
46482;DHT22;32193;51.446;6.792;2022-07-30T13:13:35;27.20;93.00
46482;DHT22;32193;51.446;6.792;2022-07-30T13:16:02;27.30;92.20
46482;DHT22;32193;51.446;6.792;2022-07-30T13:18:29;27.00;93.10
46482;DHT22;32193;51.446;6.792;2022-07-30T13:20:56;28.00;92.60
46482;DHT22;32193;51.446;6.792;2022-07-30T13:23:22;27.90;92.60
46482;DHT22;32193;51.446;6.792;2022-07-30T13:25:48;27.90;91.70
46482;DHT22;32193;51.446;6.792;2022-07-30T13:30:40;27.20;92.00
46482;DHT22;32193;51.446;6.792;2022-07-30T13:35:32;27.70;91.20
46482;DHT22;32193;51.446;6.792;2022-07-30T13:37:57;27.80;91.90
46482;DHT22;32193;51.446;6.792;2022-07-30T13:40:24;27.40;91.90
46482;DHT22;32193;51.446;6.792;2022-07-30T13:42:49;27.70;91.70
46482;DHT22;32193;51.446;6.792;2022-07-30T13:50:08;27.20;91.50
46482;DHT22;32193;51.446;6.792;2022-07-30T13:54:59;26.30;91.60
46482;DHT22;32193;51.446;6.792;2022-07-30T13:57:25;26.50;91.50
46482;DHT22;32193;51.446;6.792;2022-07-30T14:02:17;26.30;92.30
46482;DHT22;32193;51.446;6.792;2022-07-30T14:04:43;26.60;91.90
46482;DHT22;32193;51.446;6.792;2022-07-30T14:07:08;26.80;91.60
46482;DHT22;32193;51.446;6.792;2022-07-30T14:09:34;26.70;91.50
46482;DHT22;32193;51.446;6.792;2022-07-30T14:11:59;27.40;91.80
46482;DHT22;32193;51.446;6.792;2022-07-30T14:19:17;27.50;91.70
46482;DHT22;32193;51.446;6.792;2022-07-30T14:21:44;27.50;91.80
46482;DHT22;32193;51.446;6.792;2022-07-30T14:24:10;27.10;90.90
46482;DHT22;32193;51.446;6.792;2022-07-30T14:26:41;27.50;92.20
46482;DHT22;32193;51.446;6.792;2022-07-30T14:31:34;26.60;91.70
46482;DHT22;32193;51.446;6.792;2022-07-30T14:36:26;27.20;92.20
46482;DHT22;32193;51.446;6.792;2022-07-30T14:38:55;27.10;91.20
46482;DHT22;32193;51.446;6.792;2022-07-30T14:46:13;27.50;92.30
46482;DHT22;32193;51.446;6.792;2022-07-30T14:48:38;27.40;92.10
46482;DHT22;32193;51.446;6.792;2022-07-30T14:51:05;27.30;92.20
46482;DHT22;32193;51.446;6.792;2022-07-30T14:53:32;27.40;92.50
46482;DHT22;32193;51.446;6.792;2022-07-30T14:55:57;27.50;92.60
46482;DHT22;32193;51.446;6.792;2022-07-30T14:58:23;27.20;92.00
46482;DHT22;32193;51.446;6.792;2022-07-30T15:00:49;26.80;91.40
46482;DHT22;32193;51.446;6.792;2022-07-30T15:08:07;27.30;90.80
46482;DHT22;32193;51.446;6.792;2022-07-30T15:10:33;27.20;91.30
46482;DHT22;32193;51.446;6.792;2022-07-30T15:12:58;26.60;90.80
46482;DHT22;32193;51.446;6.792;2022-07-30T15:15:24;26.40;91.00
46482;DHT22;32193;51.446;6.792;2022-07-30T15:17:50;27.10;90.80
46482;DHT22;32193;51.446;6.792;2022-07-30T15:20:15;27.10;91.20
46482;DHT22;32193;51.446;6.792;2022-07-30T15:25:07;26.20;90.90
46482;DHT22;32193;51.446;6.792;2022-07-30T15:27:33;26.90;91.70
46482;DHT22;32193;51.446;6.792;2022-07-30T15:29:59;26.80;91.20
46482;DHT22;32193;51.446;6.792;2022-07-30T15:32:25;27.20;91.70
46482;DHT22;32193;51.446;6.792;2022-07-30T15:37:16;26.80;91.10
46482;DHT22;32193;51.446;6.792;2022-07-30T15:39:42;26.70;91.00
46482;DHT22;32193;51.446;6.792;2022-07-30T15:42:08;26.90;90.80
46482;DHT22;32193;51.446;6.792;2022-07-30T15:46:59;26.30;90.70
46482;DHT22;32193;51.446;6.792;2022-07-30T15:51:52;27.10;91.40
46482;DHT22;32193;51.446;6.792;2022-07-30T15:54:20;26.90;91.90
46482;DHT22;32193;51.446;6.792;2022-07-30T16:01:40;26.80;92.80
46482;DHT22;32193;51.446;6.792;2022-07-30T16:04:06;26.80;92.70
46482;DHT22;32193;51.446;6.792;2022-07-30T16:06:31;26.10;92.60
46482;DHT22;32193;51.446;6.792;2022-07-30T16:08:58;26.90;93.00
46482;DHT22;32193;51.446;6.792;2022-07-30T16:11:24;26.30;92.70
46482;DHT22;32193;51.446;6.792;2022-07-30T16:13:50;27.00;93.10
46482;DHT22;32193;51.446;6.792;2022-07-30T16:16:17;26.30;93.00
46482;DHT22;32193;51.446;6.792;2022-07-30T16:21:08;27.00;93.40
46482;DHT22;32193;51.446;6.792;2022-07-30T16:23:34;26.10;93.40
46482;DHT22;32193;51.446;6.792;2022-07-30T16:26:00;26.80;93.60
46482;DHT22;32193;51.446;6.792;2022-07-30T16:30:52;26.30;93.50
46482;DHT22;32193;51.446;6.792;2022-07-30T16:33:18;26.70;94.30
46482;DHT22;32193;51.446;6.792;2022-07-30T16:35:44;26.10;94.00
46482;DHT22;32193;51.446;6.792;2022-07-30T16:38:10;25.60;94.20
46482;DHT22;32193;51.446;6.792;2022-07-30T16:40:35;25.80;94.50
46482;DHT22;32193;51.446;6.792;2022-07-30T16:45:27;25.90;94.90
46482;DHT22;32193;51.446;6.792;2022-07-30T16:50:19;26.50;95.20
46482;DHT22;32193;51.446;6.792;2022-07-30T16:55:11;26.40;94.80
46482;DHT22;32193;51.446;6.792;2022-07-30T16:57:36;26.50;94.80
46482;DHT22;32193;51.446;6.792;2022-07-30T17:00:04;26.10;95.00
46482;DHT22;32193;51.446;6.792;2022-07-30T17:02:30;26.70;95.90
46482;DHT22;32193;51.446;6.792;2022-07-30T17:04:56;26.60;95.90
46482;DHT22;32193;51.446;6.792;2022-07-30T17:07:21;26.20;95.30
46482;DHT22;32193;51.446;6.792;2022-07-30T17:09:47;25.90;95.50
46482;DHT22;32193;51.446;6.792;2022-07-30T17:12:12;25.80;95.90
46482;DHT22;32193;51.446;6.792;2022-07-30T17:14:41;25.80;96.50
46482;DHT22;32193;51.446;6.792;2022-07-30T17:17:08;25.80;96.10
46482;DHT22;32193;51.446;6.792;2022-07-30T17:19:35;26.00;96.50
46482;DHT22;32193;51.446;6.792;2022-07-30T17:22:01;25.70;96.00
46482;DHT22;32193;51.446;6.792;2022-07-30T17:24:27;25.70;96.50
46482;DHT22;32193;51.446;6.792;2022-07-30T17:29:18;26.00;97.10
46482;DHT22;32193;51.446;6.792;2022-07-30T17:31:44;25.80;97.40
46482;DHT22;32193;51.446;6.792;2022-07-30T17:34:11;25.50;97.40
46482;DHT22;32193;51.446;6.792;2022-07-30T17:36:39;25.20;97.10
46482;DHT22;32193;51.446;6.792;2022-07-30T17:39:05;25.50;96.70
46482;DHT22;32193;51.446;6.792;2022-07-30T17:43:57;25.50;97.00
46482;DHT22;32193;51.446;6.792;2022-07-30T17:48:49;25.70;97.30
46482;DHT22;32193;51.446;6.792;2022-07-30T17:51:15;26.00;97.40
46482;DHT22;32193;51.446;6.792;2022-07-30T17:53:41;25.70;97.30
46482;DHT22;32193;51.446;6.792;2022-07-30T17:56:07;25.50;97.60
46482;DHT22;32193;51.446;6.792;2022-07-30T17:58:34;25.60;97.70
46482;DHT22;32193;51.446;6.792;2022-07-30T18:01:00;25.50;97.40
46482;DHT22;32193;51.446;6.792;2022-07-30T18:03:27;25.50;97.40
46482;DHT22;32193;51.446;6.792;2022-07-30T18:05:53;25.80;98.20
46482;DHT22;32193;51.446;6.792;2022-07-30T18:08:21;25.70;98.10
46482;DHT22;32193;51.446;6.792;2022-07-30T18:10:47;25.50;98.70
46482;DHT22;32193;51.446;6.792;2022-07-30T18:15:40;24.80;98.80
46482;DHT22;32193;51.446;6.792;2022-07-30T18:18:05;25.20;99.00
46482;DHT22;32193;51.446;6.792;2022-07-30T18:23:07;24.60;99.20
46482;DHT22;32193;51.446;6.792;2022-07-30T18:25:34;25.00;99.10
46482;DHT22;32193;51.446;6.792;2022-07-30T18:28:01;24.70;98.90
46482;DHT22;32193;51.446;6.792;2022-07-30T18:30:27;25.50;99.50
46482;DHT22;32193;51.446;6.792;2022-07-30T18:32:53;24.80;99.00
46482;DHT22;32193;51.446;6.792;2022-07-30T18:35:19;25.10;98.90
46482;DHT22;32193;51.446;6.792;2022-07-30T18:37:45;25.20;99.50
46482;DHT22;32193;51.446;6.792;2022-07-30T18:40:12;24.80;99.20
46482;DHT22;32193;51.446;6.792;2022-07-30T18:42:38;24.70;99.70
46482;DHT22;32193;51.446;6.792;2022-07-30T18:45:04;24.60;99.90
46482;DHT22;32193;51.446;6.792;2022-07-30T18:47:30;25.10;99.90
46482;DHT22;32193;51.446;6.792;2022-07-30T18:49:56;24.20;99.90
46482;DHT22;32193;51.446;6.792;2022-07-30T18:52:21;24.20;99.90
46482;DHT22;32193;51.446;6.792;2022-07-30T18:54:47;24.80;99.90
46482;DHT22;32193;51.446;6.792;2022-07-30T18:57:13;24.30;99.90
46482;DHT22;32193;51.446;6.792;2022-07-30T18:59:39;24.40;99.90
46482;DHT22;32193;51.446;6.792;2022-07-30T19:04:33;24.80;99.90
46482;DHT22;32193;51.446;6.792;2022-07-30T19:06:58;24.40;99.90
46482;DHT22;32193;51.446;6.792;2022-07-30T19:16:43;24.30;99.90
46482;DHT22;32193;51.446;6.792;2022-07-30T19:19:10;24.00;99.90
46482;DHT22;32193;51.446;6.792;2022-07-30T19:21:38;24.70;99.90
46482;DHT22;32193;51.446;6.792;2022-07-30T19:24:04;24.10;99.90
46482;DHT22;32193;51.446;6.792;2022-07-30T19:26:30;24.70;99.90
46482;DHT22;32193;51.446;6.792;2022-07-30T19:28:56;23.90;99.90
46482;DHT22;32193;51.446;6.792;2022-07-30T19:31:22;24.60;99.90
46482;DHT22;32193;51.446;6.792;2022-07-30T19:33:48;24.70;99.90
46482;DHT22;32193;51.446;6.792;2022-07-30T19:36:14;24.70;99.90
46482;DHT22;32193;51.446;6.792;2022-07-30T19:38:41;24.20;99.90
46482;DHT22;32193;51.446;6.792;2022-07-30T19:41:10;24.50;99.90
46482;DHT22;32193;51.446;6.792;2022-07-30T19:46:02;24.50;99.90
46482;DHT22;32193;51.446;6.792;2022-07-30T19:48:28;23.90;99.90
46482;DHT22;32193;51.446;6.792;2022-07-30T19:55:46;24.30;99.90
46482;DHT22;32193;51.446;6.792;2022-07-30T19:58:12;24.20;99.90
46482;DHT22;32193;51.446;6.792;2022-07-30T20:00:46;23.80;99.90
46482;DHT22;32193;51.446;6.792;2022-07-30T20:05:39;24.50;99.90